Time;durP1;ratioP1;P1;durP2;ratioP2;P2;SDS_P1;SDS_P2;PMS_P1;PMS_P2;Temp;Humidity;BMP_temperature;BMP_pressure;BME280_temperature;BME280_humidity;BME280_pressure;Samples;Min_cycle;Max_cycle;Signal;HPM_P1;HPM_P2
2021/11/09 00:01:13;;;;;;;35.73;10.85;;;;;;;5.93;90.04;101612.74;1706901;81;25716;-64
2021/11/09 00:03:47;;;;;;;33.58;10.98;;;;;;;5.92;90.04;101614.52;1704767;82;25729;-66
2021/11/09 00:06:18;;;;;;;27.58;10.72;;;;;;;5.90;90.05;101617.64;1710067;81;26351;-64
2021/11/09 00:08:43;;;;;;;26.20;10.00;;;;;;;5.92;90.09;101621.62;1706934;81;26517;-65
2021/11/09 00:11:05;;;;;;;32.38;11.25;;;;;;;5.91;90.10;101623.84;1706999;81;27497;-65
2021/11/09 00:13:31;;;;;;;22.00;10.60;;;;;;;5.92;90.08;101612.31;1708587;81;25986;-65
2021/11/09 00:15:57;;;;;;;26.82;9.48;;;;;;;5.93;90.11;101619.39;1709339;82;26278;-65
2021/11/09 00:18:23;;;;;;;32.78;10.20;;;;;;;5.91;90.02;101627.84;1706938;81;26074;-65
2021/11/09 00:20:49;;;;;;;26.70;11.10;;;;;;;5.87;90.01;101628.28;1701270;81;25846;-64
2021/11/09 00:23:15;;;;;;;26.77;9.83;;;;;;;5.81;89.94;101633.20;1720566;79;29493;-65
2021/11/09 00:25:42;;;;;;;28.77;9.40;;;;;;;5.81;90.01;101638.97;1730615;81;25757;-65
2021/11/09 00:28:10;;;;;;;31.15;9.75;;;;;;;5.81;90.06;101644.29;1755121;80;25880;-65
2021/11/09 00:30:36;;;;;;;29.98;10.18;;;;;;;5.80;90.05;101642.52;1758922;80;25766;-65
2021/11/09 00:33:04;;;;;;;25.43;9.20;;;;;;;5.78;90.06;101646.53;1751853;80;25863;-66
2021/11/09 00:35:32;;;;;;;28.32;8.83;;;;;;;5.79;90.09;101646.08;1759946;80;27565;-66
2021/11/09 00:38:03;;;;;;;26.00;9.00;;;;;;;5.78;90.07;101647.86;1754920;80;26495;-65
2021/11/09 00:40:33;;;;;;;24.92;9.58;;;;;;;5.76;89.99;101653.63;1755625;80;25880;-66
2021/11/09 00:43:00;;;;;;;25.92;8.78;;;;;;;5.71;90.01;101651.45;1751434;80;25753;-65
2021/11/09 00:45:26;;;;;;;22.17;9.00;;;;;;;5.70;90.02;101654.13;1755338;80;26124;-66
2021/11/09 00:47:52;;;;;;;22.85;9.33;;;;;;;5.69;90.07;101653.24;1757498;79;27481;-66
2021/11/09 00:50:21;;;;;;;19.17;8.70;;;;;;;5.69;90.08;101658.56;1761039;80;25720;-66
2021/11/09 00:52:48;;;;;;;20.57;8.73;;;;;;;5.69;90.08;101655.02;1756816;80;26057;-66
2021/11/09 00:55:15;;;;;;;31.90;8.73;;;;;;;5.68;90.09;101660.79;1757941;80;26065;-66
2021/11/09 00:57:44;;;;;;;22.55;9.70;;;;;;;5.68;90.03;101665.23;1727525;81;25789;-66
2021/11/09 01:00:16;;;;;;;22.00;9.20;;;;;;;5.66;90.05;101669.67;1736591;80;28088;-66
2021/11/09 01:02:44;;;;;;;27.75;9.38;;;;;;;5.63;90.02;101668.36;1761775;79;25752;-66
2021/11/09 01:05:12;;;;;;;28.73;10.85;;;;;;;5.61;90.08;101676.35;1754728;80;26523;-66
2021/11/09 01:07:38;;;;;;;23.73;9.10;;;;;;;5.61;90.02;101677.69;1752433;80;28413;-66
2021/11/09 01:10:08;;;;;;;26.87;10.45;;;;;;;5.58;90.01;101686.12;1756136;80;25857;-66
2021/11/09 01:12:35;;;;;;;25.08;8.98;;;;;;;5.55;89.98;101687.03;1758626;79;27473;-66
2021/11/09 01:15:03;;;;;;;30.27;11.85;;;;;;;5.52;90.03;101693.25;1708372;81;25804;-66
2021/11/09 01:17:29;;;;;;;22.15;11.60;;;;;;;5.52;90.12;101696.35;1753461;80;25844;-65
2021/11/09 01:19:55;;;;;;;29.05;10.98;;;;;;;5.53;90.09;101702.11;1750620;80;25892;-65
2021/11/09 01:22:21;;;;;;;31.10;10.85;;;;;;;5.52;90.10;101706.55;1751779;80;26620;-66
2021/11/09 01:24:47;;;;;;;26.80;10.72;;;;;;;5.48;90.00;101699.48;1757040;80;27474;-67
2021/11/09 01:27:13;;;;;;;22.27;11.50;;;;;;;5.47;90.00;101705.69;1735012;79;26367;-66
2021/11/09 01:29:38;;;;;;;22.17;11.30;;;;;;;5.41;90.03;101696.86;1753469;80;26297;-65
2021/11/09 01:32:05;;;;;;;27.95;11.53;;;;;;;5.46;90.04;101709.23;1752910;80;25895;-66
2021/11/09 01:34:31;;;;;;;33.60;18.75;;;;;;;5.43;90.02;101709.70;1736040;80;25783;-66
2021/11/09 01:36:57;;;;;;;35.90;18.73;;;;;;;5.41;90.01;101712.37;1740811;80;27408;-66
2021/11/09 01:39:24;;;;;;;37.25;16.95;;;;;;;5.39;90.00;101708.83;1743368;80;26593;-66
2021/11/09 01:41:49;;;;;;;42.15;15.05;;;;;;;5.40;90.05;101705.28;1742823;80;25892;-66
2021/11/09 01:44:16;;;;;;;26.05;13.90;;;;;;;5.40;90.12;101705.73;1734615;80;26432;-67
2021/11/09 01:46:44;;;;;;;28.32;11.75;;;;;;;5.41;90.14;101700.40;1738210;80;25754;-66
2021/11/09 01:49:10;;;;;;;28.98;13.55;;;;;;;5.43;90.14;101702.61;1738986;80;28390;-66
2021/11/09 01:51:36;;;;;;;33.00;15.20;;;;;;;5.43;90.13;101704.38;1738956;80;25789;-65
2021/11/09 01:54:04;;;;;;;33.75;14.18;;;;;;;5.45;90.14;101699.94;1711220;82;25938;-65
2021/11/09 01:56:32;;;;;;;22.00;11.15;;;;;;;5.43;90.14;101699.95;1701619;82;26472;-65
2021/11/09 01:58:59;;;;;;;33.02;11.70;;;;;;;5.42;90.10;101690.20;1758551;80;25680;-65
2021/11/09 02:01:27;;;;;;;27.35;13.13;;;;;;;5.43;90.08;101699.06;1752659;80;27442;-65
2021/11/09 02:03:58;;;;;;;23.35;12.30;;;;;;;5.41;90.09;101696.41;1757059;80;25813;-65
2021/11/09 02:06:26;;;;;;;38.92;13.93;;;;;;;5.39;90.08;101695.54;1756898;80;25902;-65
2021/11/09 02:09:12;;;;;;;27.52;13.85;;;;;;;5.39;90.09;101693.33;1738110;79;25755;-65
2021/11/09 02:11:40;;;;;;;25.20;12.88;;;;;;;5.38;90.09;101700.42;1746215;80;26207;-65
2021/11/09 02:14:07;;;;;;;32.73;16.57;;;;;;;5.35;90.05;101692.91;1739948;80;29484;-65
2021/11/09 02:16:35;;;;;;;31.62;16.62;;;;;;;5.33;90.07;101702.22;1743251;79;26528;-65
2021/11/09 02:19:03;;;;;;;38.20;19.05;;;;;;;5.33;90.08;101703.55;1741933;80;25769;-65
2021/11/09 02:21:31;;;;;;;31.37;15.78;;;;;;;5.31;90.03;101706.66;1742610;79;25896;-65
2021/11/09 02:23:59;;;;;;;28.62;14.58;;;;;;;5.28;89.99;101713.77;1737631;80;25920;-65
2021/11/09 02:26:25;;;;;;;32.58;13.28;;;;;;;5.28;90.09;101723.95;1736883;79;27496;-66
2021/11/09 02:28:57;;;;;;;33.35;12.98;;;;;;;5.30;90.10;101725.27;1732834;80;27165;-66
2021/11/09 02:31:24;;;;;;;24.80;11.70;;;;;;;5.28;90.10;101723.95;1754187;80;25858;-65
2021/11/09 02:33:51;;;;;;;24.87;12.98;;;;;;;5.28;90.12;101729.27;1757772;80;27804;-65
2021/11/09 02:36:18;;;;;;;30.72;12.30;;;;;;;5.29;90.15;101725.72;1761345;79;26183;-65
2021/11/09 02:38:46;;;;;;;24.67;11.53;;;;;;;5.29;90.13;101734.14;1732049;80;27334;-65
2021/11/09 02:41:13;;;;;;;29.12;10.75;;;;;;;5.27;90.13;101734.14;1758989;80;25935;-65
2021/11/09 02:43:39;;;;;;;33.58;13.20;;;;;;;5.29;90.15;101740.34;1751564;79;25684;-65
2021/11/09 02:51:33;;;;;;;26.07;12.47;;;;;;;5.27;90.18;101755.85;1751889;80;27377;-65
2021/11/09 02:59:00;;;;;;;27.42;12.47;;;;;;;5.23;90.14;101766.50;1756518;80;26145;-65
2021/11/09 03:01:44;;;;;;;30.70;13.08;;;;;;;5.21;90.14;101773.59;1757527;80;25801;-65
2021/11/09 03:04:11;;;;;;;31.45;13.00;;;;;;;5.25;90.21;101780.23;1752493;80;29582;-66
2021/11/09 03:06:42;;;;;;;35.43;13.40;;;;;;;5.25;90.16;101776.24;1758810;80;26752;-65
2021/11/09 03:09:16;;;;;;;29.02;13.70;;;;;;;5.23;90.16;101775.80;1755263;80;25811;-66
2021/11/09 03:11:47;;;;;;;31.68;12.80;;;;;;;5.21;90.15;101779.35;1753260;80;26742;-66
2021/11/09 03:14:10;;;;;;;32.83;13.48;;;;;;;5.16;90.12;101769.22;1752711;80;26439;-66
2021/11/09 03:16:40;;;;;;;37.10;13.05;;;;;;;5.19;90.17;101783.38;1756429;80;27429;-66
2021/11/09 03:19:31;;;;;;;33.98;13.75;;;;;;;5.20;90.20;101783.78;1754977;80;25830;-66
2021/11/09 03:44:19;;;;;;;27.20;12.75;;;;;;;5.05;90.14;101801.58;1740724;79;27469;-66
2021/11/09 03:46:50;;;;;;;29.35;12.65;;;;;;;5.05;90.18;101806.89;1740308;80;25885;-66
2021/11/09 03:49:18;;;;;;;31.35;13.90;;;;;;;5.05;90.19;101812.20;1739980;80;25737;-66
2021/11/09 03:51:44;;;;;;;30.97;12.70;;;;;;;5.04;90.18;101815.75;1738995;79;26443;-66
2021/11/09 03:54:14;;;;;;;29.87;12.60;;;;;;;5.02;90.11;101816.20;1757305;80;25762;-66
2021/11/09 03:56:46;;;;;;;24.85;12.85;;;;;;;5.00;90.12;101821.95;1758068;80;27438;-66
2021/11/09 03:59:13;;;;;;;39.00;14.18;;;;;;;5.01;90.19;101832.59;1755966;80;25855;-66
2021/11/09 04:02:25;;;;;;;29.42;13.03;;;;;;;5.02;90.21;101831.70;1754218;80;25897;-66
2021/11/09 04:04:25;;;;;;;30.27;12.55;;;;;;;5.04;90.23;101835.68;1748466;80;25924;-66
2021/11/09 04:06:40;;;;;;;31.33;13.32;;;;;;;5.03;90.23;101836.56;1756987;80;25805;-66
2021/11/09 04:11:43;;;;;;;25.68;11.73;;;;;;;5.01;90.20;101839.23;1714295;81;25797;-66
2021/11/09 04:16:48;;;;;;;30.48;13.05;;;;;;;4.97;90.15;101837.46;1742239;79;26807;-66
2021/11/09 04:22:55;;;;;;;39.13;14.30;;;;;;;4.97;90.18;101837.91;1742694;80;27479;-65
2021/11/09 04:27:33;;;;;;;33.58;14.58;;;;;;;4.93;90.14;101848.09;1722790;81;26623;-66
2021/11/09 04:41:44;;;;;;;28.42;14.70;;;;;;;4.89;90.21;101860.50;1714351;81;26507;-66
2021/11/09 04:48:56;;;;;;;37.75;14.47;;;;;;;4.78;90.03;101871.13;1715686;81;28753;-66
2021/11/09 05:01:06;;;;;;;36.15;15.78;;;;;;;4.74;90.13;101879.98;1720483;81;26445;-66
2021/11/09 05:02:16;;;;;;;31.57;14.80;;;;;;;4.68;90.11;101881.74;1719907;81;28064;-67
2021/11/09 05:09:44;;;;;;;36.93;16.27;;;;;;;4.53;90.08;101891.47;1673698;82;25813;-67
2021/11/09 05:12:09;;;;;;;38.17;15.93;;;;;;;4.51;90.10;101898.55;1718430;81;25806;-68
2021/11/09 05:14:36;;;;;;;41.28;16.75;;;;;;;4.49;90.11;101896.77;1718543;81;28636;-67
2021/11/09 05:17:03;;;;;;;44.48;16.50;;;;;;;4.46;90.09;101901.63;1717163;81;25755;-67
2021/11/09 05:19:30;;;;;;;41.15;16.42;;;;;;;4.45;90.07;101913.58;1719172;81;26439;-67
2021/11/09 05:21:56;;;;;;;35.15;16.93;;;;;;;4.41;90.00;101917.99;1720367;81;26326;-67
2021/11/09 05:24:22;;;;;;;42.35;17.10;;;;;;;4.36;89.98;101916.21;1717341;81;25766;-67
2021/11/09 05:26:48;;;;;;;39.95;15.98;;;;;;;4.36;90.09;101926.83;1752255;80;27533;-68
2021/11/09 05:29:15;;;;;;;32.93;15.70;;;;;;;4.40;90.17;101932.59;1757400;80;27219;-67
2021/11/09 05:31:42;;;;;;;47.62;17.10;;;;;;;4.43;90.16;101943.22;1754130;80;26380;-66
2021/11/09 05:34:09;;;;;;;37.42;15.58;;;;;;;4.45;90.18;101939.68;1758486;80;25740;-66
2021/11/09 05:36:37;;;;;;;40.15;16.48;;;;;;;4.46;90.14;101942.78;1760101;80;26383;-66
2021/11/09 05:39:16;;;;;;;36.40;15.85;;;;;;;4.47;90.13;101952.52;1753503;79;27397;-66
2021/11/09 05:41:43;;;;;;;48.80;17.62;;;;;;;4.50;90.21;101952.97;1756720;80;27185;-66
2021/11/09 05:44:10;;;;;;;37.88;16.57;;;;;;;4.53;90.21;101954.30;1759700;80;25688;-66
2021/11/09 05:46:39;;;;;;;41.77;17.25;;;;;;;4.56;90.27;101959.63;1733436;80;26245;-66
2021/11/09 05:49:06;;;;;;;37.33;17.30;;;;;;;4.58;90.25;101964.94;1754374;80;25893;-66
2021/11/09 05:51:33;;;;;;;43.23;17.17;;;;;;;4.60;90.30;101961.84;1756666;80;27516;-66
2021/11/09 05:54:00;;;;;;;42.00;17.35;;;;;;;4.62;90.23;101972.03;1756664;80;27218;-66
2021/11/09 05:56:28;;;;;;;42.23;17.52;;;;;;;4.62;90.24;101972.03;1761115;80;25801;-66
2021/11/09 05:58:54;;;;;;;41.20;18.42;;;;;;;4.63;90.25;101981.33;1756845;80;26400;-66
2021/11/09 06:01:20;;;;;;;42.98;18.30;;;;;;;4.66;90.28;101984.42;1761923;80;25762;-66
2021/11/09 06:03:46;;;;;;;39.25;18.02;;;;;;;4.68;90.31;101981.33;1712800;82;27405;-65
2021/11/09 06:06:12;;;;;;;39.23;17.60;;;;;;;4.68;90.30;101986.20;1747668;80;25714;-65
2021/11/09 06:08:38;;;;;;;32.20;17.67;;;;;;;4.71;90.32;101987.98;1752241;79;25803;-65
2021/11/09 06:11:04;;;;;;;46.48;19.15;;;;;;;4.71;90.29;101996.83;1752125;80;26882;-65
2021/11/09 06:13:30;;;;;;;43.78;18.42;;;;;;;4.71;90.24;102005.24;1748943;80;25817;-66
2021/11/09 06:15:56;;;;;;;34.33;16.62;;;;;;;4.71;90.27;102010.11;1753012;80;28048;-65
2021/11/09 06:18:22;;;;;;;35.75;17.52;;;;;;;4.72;90.33;102023.84;1753557;80;25768;-67
2021/11/09 06:20:48;;;;;;;42.58;18.25;;;;;;;4.73;90.31;102020.74;1759348;80;25761;-66
2021/11/09 06:23:14;;;;;;;43.78;17.57;;;;;;;4.75;90.33;102019.86;1759589;80;25876;-66
2021/11/09 06:25:43;;;;;;;40.05;17.23;;;;;;;4.73;90.24;102024.28;1759063;80;25758;-65
2021/11/09 06:28:09;;;;;;;40.23;16.57;;;;;;;4.71;90.25;102022.06;1758286;80;27487;-65
2021/11/09 06:30:35;;;;;;;38.53;18.15;;;;;;;4.71;90.21;102031.36;1762789;79;25825;-66
2021/11/09 06:33:01;;;;;;;42.27;16.97;;;;;;;4.69;90.25;102030.91;1765207;79;25802;-65
2021/11/09 06:35:27;;;;;;;37.75;18.27;;;;;;;4.67;90.22;102036.22;1757257;80;27771;-66
2021/11/09 06:37:53;;;;;;;39.42;16.77;;;;;;;4.67;90.33;102032.23;1755210;80;26387;-66
2021/11/09 06:40:19;;;;;;;36.80;18.00;;;;;;;4.69;90.31;102036.22;1755802;80;29446;-66
2021/11/09 06:42:45;;;;;;;41.60;18.12;;;;;;;4.71;90.43;102039.33;1757022;80;25833;-66
2021/11/09 06:45:11;;;;;;;42.50;18.37;;;;;;;4.75;90.43;102053.06;1733687;80;25776;-66
2021/11/09 06:47:38;;;;;;;41.40;17.05;;;;;;;4.75;90.41;102054.39;1735337;80;26410;-66
2021/11/09 06:50:08;;;;;;;48.50;18.60;;;;;;;4.78;90.46;102054.41;1740332;80;26366;-66
2021/11/09 06:52:34;;;;;;;46.55;19.48;;;;;;;4.83;90.47;102055.74;1730127;80;28169;-66
2021/11/09 06:55:02;;;;;;;39.58;18.70;;;;;;;4.86;90.49;102057.08;1736212;80;26115;-66
2021/11/09 06:57:28;;;;;;;45.03;19.90;;;;;;;4.92;90.55;102065.51;1755435;80;26026;-65
2021/11/09 06:59:54;;;;;;;39.70;19.50;;;;;;;4.97;90.57;102066.41;1764471;79;25965;-65
2021/11/09 07:02:20;;;;;;;41.98;18.65;;;;;;;5.01;90.56;102084.13;1759822;80;25883;-64
2021/11/09 07:04:46;;;;;;;43.63;19.42;;;;;;;5.03;90.53;102083.25;1760758;80;27396;-64
2021/11/09 07:07:12;;;;;;;39.38;19.75;;;;;;;5.06;90.52;102086.36;1763573;80;25826;-65
2021/11/09 07:09:38;;;;;;;48.30;19.77;;;;;;;5.07;90.53;102085.03;1761007;80;25747;-66
2021/11/09 07:12:04;;;;;;;45.98;20.12;;;;;;;5.11;90.57;102096.11;1741724;80;27851;-66
2021/11/09 07:14:30;;;;;;;54.48;20.27;;;;;;;5.15;90.60;102098.34;1757793;80;25744;-66
2021/11/09 07:16:56;;;;;;;41.37;20.00;;;;;;;5.18;90.61;102108.98;1758271;80;28269;-67
2021/11/09 07:19:22;;;;;;;47.53;20.40;;;;;;;5.26;90.68;102109.84;1761133;80;26243;-66
2021/11/09 07:21:51;;;;;;;55.38;19.12;;;;;;;5.31;90.64;102116.50;1764069;80;25807;-66
2021/11/09 07:24:17;;;;;;;51.73;22.55;;;;;;;5.34;90.66;102122.70;1758085;80;26605;-66
2021/11/09 07:26:43;;;;;;;50.60;20.08;;;;;;;5.39;90.73;102121.39;1760451;80;25742;-66
2021/11/09 07:29:09;;;;;;;50.95;21.80;;;;;;;5.43;90.70;102131.14;1764789;80;28471;-66
2021/11/09 07:31:36;;;;;;;49.20;21.65;;;;;;;5.47;90.75;102127.60;1757119;80;25867;-66
2021/11/09 07:34:03;;;;;;;40.48;20.15;;;;;;;5.51;90.71;102130.27;1761080;80;25815;-66
2021/11/09 07:36:29;;;;;;;43.25;19.75;;;;;;;5.54;90.74;102127.61;1761503;80;27152;-66
2021/11/09 07:39:00;;;;;;;41.40;19.82;;;;;;;5.58;90.71;102123.62;1757420;80;26487;-68
2021/11/09 07:41:26;;;;;;;36.65;20.48;;;;;;;5.62;90.73;102130.28;1762304;80;30439;-67
2021/11/09 07:43:52;;;;;;;46.37;20.57;;;;;;;5.65;90.69;102128.95;1755215;80;27210;-67
2021/11/09 07:46:18;;;;;;;55.90;26.55;;;;;;;5.69;90.75;102136.05;1753353;80;25840;-67
2021/11/09 07:48:44;;;;;;;47.23;24.80;;;;;;;5.73;90.78;102134.27;1755555;80;26720;-66
2021/11/09 07:51:10;;;;;;;44.48;21.57;;;;;;;5.78;90.80;102145.80;1752664;80;25769;-65
2021/11/09 07:53:38;;;;;;;43.83;22.62;;;;;;;5.82;90.78;102146.25;1756150;80;27521;-66
2021/11/09 07:56:16;;;;;;;46.02;21.68;;;;;;;5.84;90.71;102147.14;1756074;80;26081;-65
2021/11/09 07:58:52;;;;;;;48.05;21.45;;;;;;;5.86;90.70;102156.01;1753259;80;25808;-67
2021/11/09 08:01:17;;;;;;;54.50;22.20;;;;;;;5.89;90.72;102156.05;1758213;80;25812;-66
2021/11/09 08:06:17;;;;;;;45.55;22.22;;;;;;;5.99;90.82;102164.91;1752145;80;27464;-68
2021/11/09 08:11:25;;;;;;;45.45;20.35;;;;;;;6.11;90.91;102163.58;1762515;80;26566;-68
2021/11/09 08:13:51;;;;;;;42.70;21.15;;;;;;;6.17;90.94;102164.45;1753468;80;26521;-68
2021/11/09 08:16:17;;;;;;;43.13;21.82;;;;;;;6.23;90.94;102164.89;1758548;80;25710;-68
2021/11/09 08:18:45;;;;;;;41.65;20.90;;;;;;;6.28;90.93;102163.56;1753615;80;29499;-68
2021/11/09 08:21:12;;;;;;;46.35;22.00;;;;;;;6.29;90.89;102160.01;1755433;80;25862;-69
2021/11/09 08:23:39;;;;;;;44.53;22.32;;;;;;;6.34;90.96;102167.55;1751964;80;25772;-69
2021/11/09 08:26:05;;;;;;;45.10;23.22;;;;;;;6.36;90.92;102172.42;1753168;80;26315;-69
2021/11/09 08:28:33;;;;;;;45.40;23.67;;;;;;;6.38;90.90;102169.31;1752571;80;25632;-68
2021/11/09 08:31:08;;;;;;;46.05;25.15;;;;;;;6.39;90.89;102181.73;1749908;80;27416;-68
2021/11/09 08:33:31;;;;;;;50.15;26.07;;;;;;;6.45;90.98;102181.73;1750736;80;25827;-70
2021/11/09 08:36:01;;;;;;;49.10;24.20;;;;;;;6.53;91.04;102185.70;1751440;80;25851;-69
2021/11/09 08:38:25;;;;;;;49.15;23.20;;;;;;;6.62;91.14;102185.24;1744752;80;26216;-68
2021/11/09 08:40:53;;;;;;;55.80;29.18;;;;;;;6.69;91.09;102177.67;1750679;80;25764;-68
2021/11/09 08:43:22;;;;;;;46.73;25.60;;;;;;;6.76;91.13;102182.54;1750747;80;27448;-68
2021/11/09 08:45:54;;;;;;;52.05;24.43;;;;;;;6.84;91.18;102188.28;1751280;80;25800;-69
2021/11/09 08:48:17;;;;;;;45.40;24.00;;;;;;;6.92;91.16;102194.03;1748147;80;25810;-69
2021/11/09 08:50:43;;;;;;;49.73;25.05;;;;;;;6.96;91.12;102189.13;1752522;80;27875;-70
2021/11/09 08:53:20;;;;;;;59.53;25.55;;;;;;;7.00;91.09;102196.23;1746758;80;25752;-69
2021/11/09 09:01:05;;;;;;;43.35;23.32;;;;;;;7.09;91.13;102190.86;1640782;85;26567;-70
2021/11/09 09:06:37;;;;;;;42.70;22.70;;;;;;;7.24;91.17;102208.12;1668357;83;25889;-70
2021/11/09 09:09:04;;;;;;;41.77;22.98;;;;;;;7.29;91.14;102213.44;1674127;81;29473;-68
2021/11/09 09:11:32;;;;;;;47.78;25.35;;;;;;;7.32;91.17;102210.31;1757368;80;26516;-69
2021/11/09 09:14:01;;;;;;;41.02;22.65;;;;;;;7.37;91.14;102215.17;1757794;80;25919;-68
2021/11/09 09:16:29;;;;;;;46.88;25.48;;;;;;;7.37;91.10;102215.63;1752006;80;25820;-68
2021/11/09 09:18:55;;;;;;;53.40;26.33;;;;;;;7.39;91.10;102225.39;1755076;79;25813;-68
2021/11/09 09:21:34;;;;;;;50.85;25.50;;;;;;;7.40;91.13;102228.49;1758240;80;27575;-68
2021/11/09 09:24:01;;;;;;;50.17;27.75;;;;;;;7.42;91.08;102225.38;1756841;80;25813;-69
2021/11/09 09:26:37;;;;;;;56.55;27.17;;;;;;;7.43;91.12;102219.14;1754549;80;26290;-68
2021/11/09 09:29:14;;;;;;;66.57;29.67;;;;;;;7.44;91.06;102225.36;1756338;80;26419;-70
2021/11/09 09:53:58;;;;;;;62.88;32.95;;;;;;;7.68;91.03;102230.56;1756545;80;25756;-68
2021/11/09 09:56:18;;;;;;;59.93;30.45;;;;;;;7.70;91.02;102228.77;1750579;80;25868;-68
2021/11/09 09:58:40;;;;;;;65.35;31.75;;;;;;;7.68;90.94;102233.68;1757670;80;25732;-68
2021/11/09 10:01:06;;;;;;;68.42;30.92;;;;;;;7.67;90.93;102227.45;1756119;80;27450;-68
2021/11/09 10:03:37;;;;;;;73.75;36.77;;;;;;;7.68;90.91;102230.56;1755766;80;25806;-69
2021/11/09 10:06:06;;;;;;;73.85;35.90;;;;;;;7.67;90.89;102227.91;1757256;80;26288;-67
2021/11/09 10:08:48;;;;;;;76.82;34.23;;;;;;;7.66;90.86;102234.14;1751541;80;25762;-74
2021/11/09 10:11:32;;;;;;;68.57;33.20;;;;;;;7.66;90.88;102231.47;1757578;80;25855;-69
2021/11/09 10:14:04;;;;;;;62.13;31.97;;;;;;;7.68;90.93;102231.89;1755731;80;27494;-67
2021/11/09 10:16:34;;;;;;;;;;;;;;;7.72;90.94;102239.44;1756214;80;25756;-66
2021/11/09 10:18:59;;;;;;;75.32;34.55;;;;;;;7.75;91.00;102237.64;1747363;80;25962;-66
2021/11/09 10:21:37;;;;;;;73.33;33.70;;;;;;;7.72;90.90;102239.44;1748097;80;25755;-66
2021/11/09 10:24:07;;;;;;;63.45;32.10;;;;;;;7.71;90.90;102242.55;1729713;81;25839;-68
2021/11/09 10:26:35;;;;;;;68.07;31.00;;;;;;;7.71;90.86;102245.67;1733279;80;27489;-68
2021/11/09 10:29:08;;;;;;;73.42;31.20;;;;;;;7.69;90.81;102247.46;1747942;80;25789;-67
2021/11/09 10:31:41;;;;;;;76.28;34.15;;;;;;;7.64;90.75;102248.83;1748750;80;25858;-66
2021/11/09 10:34:27;;;;;;;71.47;32.95;;;;;;;7.62;90.78;102245.28;1747263;80;26659;-66
2021/11/09 10:37:15;;;;;;;80.20;31.55;;;;;;;7.63;90.82;102237.70;1750477;80;25349;-67
2021/11/09 10:39:44;;;;;;;72.42;31.97;;;;;;;7.62;90.77;102241.27;1753108;80;29543;-66
2021/11/09 10:42:15;;;;;;;91.40;43.45;;;;;;;7.63;90.76;102240.37;1750105;79;26008;-66
2021/11/09 10:44:45;;;;;;;72.15;35.48;;;;;;;7.64;90.79;102242.16;1752175;80;25848;-66
2021/11/09 10:47:22;;;;;;;94.13;40.55;;;;;;;7.68;90.86;102241.23;1751719;80;25774;-66
2021/11/09 10:49:51;;;;;;;87.95;37.15;;;;;;;7.67;90.72;102235.91;1755054;80;25817;-66
2021/11/09 10:52:25;;;;;;;76.77;33.75;;;;;;;7.69;90.85;102240.34;1747432;80;28091;-67
2021/11/09 10:55:21;;;;;;;87.17;36.58;;;;;;;7.69;90.76;102236.78;1750411;80;26096;-67
2021/11/09 10:57:59;;;;;;;93.30;38.33;;;;;;;7.73;90.85;102241.21;1737668;80;25788;-67
2021/11/09 11:03:15;;;;;;;86.42;37.98;;;;;;;7.77;90.91;102237.17;1714404;80;26023;-68
2021/11/09 11:04:04;;;;;;;76.90;34.00;;;;;;;7.80;90.84;102237.61;1739620;80;25725;-67
2021/11/09 11:06:20;;;;;;;85.97;39.13;;;;;;;7.78;90.78;102239.40;1739432;80;27501;-67
2021/11/09 11:08:52;;;;;;;80.57;37.80;;;;;;;7.77;90.77;102229.62;1749086;80;26154;-67
2021/11/09 11:11:28;;;;;;;80.62;37.40;;;;;;;7.76;90.77;102242.08;1750457;80;25820;-66
2021/11/09 11:14:10;;;;;;;77.32;35.08;;;;;;;7.75;90.77;102243.42;1730589;80;26407;-67
2021/11/09 11:16:54;;;;;;;68.78;31.20;;;;;;;7.74;90.70;102244.31;1749265;80;25855;-67
2021/11/09 11:19:29;;;;;;;65.45;30.90;;;;;;;7.73;90.78;102246.55;1753095;79;27561;-67
2021/11/09 11:22:00;;;;;;;74.62;33.50;;;;;;;7.71;90.77;102244.34;1750181;80;25770;-67
2021/11/09 11:24:27;;;;;;;76.80;32.30;;;;;;;7.72;90.77;102250.11;1744107;80;26530;-68
2021/11/09 11:26:56;;;;;;;76.65;31.40;;;;;;;7.71;90.73;102247.00;1754427;80;25857;-67
2021/11/09 11:29:26;;;;;;;67.42;31.93;;;;;;;7.71;90.85;102245.67;1717824;81;25837;-66
2021/11/09 11:31:55;;;;;;;72.30;32.57;;;;;;;7.77;90.89;102249.64;1696056;83;27418;-66
2021/11/09 11:34:26;;;;;;;84.60;37.48;;;;;;;7.75;90.81;102253.65;1691407;82;26539;-68
2021/11/09 11:36:54;;;;;;;85.72;34.90;;;;;;;7.75;90.74;102251.43;1693848;83;26548;-66
2021/11/09 11:39:24;;;;;;;73.42;31.62;;;;;;;7.76;90.80;102251.87;1693772;82;25899;-68
2021/11/09 11:41:55;;;;;;;70.32;32.03;;;;;;;7.77;90.75;102249.19;1692619;83;25312;-69
2021/11/09 11:44:33;;;;;;;87.60;38.00;;;;;;;7.79;90.74;102255.41;1695645;82;27929;-67
2021/11/09 11:47:13;;;;;;;96.82;43.30;;;;;;;7.82;90.79;102257.14;1694385;83;26485;-67
2021/11/09 11:49:57;;;;;;;73.90;33.33;;;;;;;7.82;90.79;102255.35;1718003;81;26490;-69
2021/11/09 11:52:27;;;;;;;68.85;31.82;;;;;;;7.85;90.70;102261.13;1715585;81;27868;-69
2021/11/09 11:55:04;;;;;;;79.37;32.78;;;;;;;7.82;90.72;102253.13;1719914;81;25803;-68
2021/11/09 11:57:41;;;;;;;74.22;33.38;;;;;;;7.83;90.75;102261.58;1720011;81;29499;-68
2021/11/09 12:00:33;;;;;;;80.45;34.05;;;;;;;7.83;90.75;102262.91;1693670;83;25930;-68
2021/11/09 12:03:03;;;;;;;65.08;31.17;;;;;;;7.82;90.70;102258.02;1692953;83;25766;-69
2021/11/09 12:05:44;;;;;;;68.83;31.37;;;;;;;7.79;91.06;102257.19;1692890;83;26420;-67
2021/11/09 12:08:17;;;;;;;71.67;33.02;;;;;;;7.79;91.06;102257.19;1719686;81;25902;-67
2021/11/09 12:10:53;;;;;;;80.00;35.15;;;;;;;7.79;90.69;102258.52;1727309;81;27377;-68
2021/11/09 12:13:23;;;;;;;82.17;34.05;;;;;;;7.80;90.73;102256.29;1723361;81;26862;-67
2021/11/09 12:16:05;;;;;;;91.12;34.95;;;;;;;7.82;90.74;102261.14;1723593;81;25761;-67
2021/11/09 12:18:35;;;;;;;77.08;32.00;;;;;;;7.84;90.70;102268.69;1724012;81;25895;-67
2021/11/09 12:21:23;;;;;;;91.12;34.25;;;;;;;7.83;90.67;102269.59;1692287;83;26474;-68
2021/11/09 12:24:15;;;;;;;78.07;32.60;;;;;;;7.85;90.72;102267.80;1719048;81;27395;-68
2021/11/09 12:26:46;;;;;;;73.95;32.30;;;;;;;7.88;90.77;102269.11;1714248;81;26490;-69
2021/11/09 12:29:43;;;;;;;71.57;33.90;;;;;;;7.93;90.77;102271.75;1721623;81;25848;-70
2021/11/09 12:32:30;;;;;;;80.22;33.88;;;;;;;7.93;90.66;102267.30;1723636;81;25796;-69
2021/11/09 12:35:06;;;;;;;88.82;36.05;;;;;;;7.96;90.71;102265.05;1695087;83;25841;-68
2021/11/09 12:37:36;;;;;;;86.60;36.45;;;;;;;8.02;90.80;102271.69;1695461;82;28039;-68
2021/11/09 12:40:38;;;;;;;84.58;37.28;;;;;;;8.04;90.72;102267.22;1698468;82;25790;-67
2021/11/09 12:43:16;;;;;;;75.25;32.70;;;;;;;8.06;90.77;102263.65;1682560;83;25779;-68
2021/11/09 12:46:21;;;;;;;71.42;32.85;;;;;;;8.08;90.73;102264.52;1704418;82;25889;-68
2021/11/09 12:48:52;;;;;;;77.30;33.38;;;;;;;8.08;90.67;102259.18;1702721;82;26176;-68
2021/11/09 12:51:26;;;;;;;67.95;32.13;;;;;;;8.12;90.76;102248.91;1700593;82;28340;-68
2021/11/09 12:53:56;;;;;;;75.87;34.20;;;;;;;8.15;90.75;102250.22;1700403;82;25830;-68
2021/11/09 12:56:38;;;;;;;78.70;35.23;;;;;;;8.18;90.69;102245.31;1702000;82;25816;-68
2021/11/09 12:59:41;;;;;;;94.35;41.33;;;;;;;8.20;90.73;102243.52;1704735;82;25902;-69
2021/11/09 13:01:53;;;;;;;83.90;39.27;;;;;;;8.26;90.77;102253.26;1699712;82;25836;-71
2021/11/09 13:04:32;;;;;;;77.10;36.35;;;;;;;8.28;90.74;102250.13;1706847;82;27512;-71
2021/11/09 13:09:49;;;;;;;73.70;34.55;;;;;;;8.29;90.71;102250.56;1706536;82;25355;-69
2021/11/09 13:12:23;;;;;;;79.45;35.78;;;;;;;8.29;90.75;102248.78;1701716;82;25783;-69
2021/11/09 13:14:58;;;;;;;79.82;34.53;;;;;;;8.34;90.81;102246.98;1706075;82;25804;-69
2021/11/09 13:17:54;;;;;;;74.27;32.40;;;;;;;8.35;90.77;102243.42;1698017;82;28145;-69
2021/11/09 13:23:16;;;;;;;74.53;33.98;;;;;;;8.36;90.73;102239.84;1703596;82;26134;-67
2021/11/09 13:25:51;;;;;;;70.47;32.65;;;;;;;8.34;90.65;102238.98;1704706;82;26365;-67